Time,TemperatureF,DewpointF,PressureIn,WindDirection,WindDirectionDegrees,WindSpeedMPH,WindSpeedGustMPH,Humidity,HourlyPrecipIn,Conditions,Clouds,dailyrainin,SoftwareType,DateUTC
2013-09-13 00:02:00,62.0,52.0,-100.00,ESE,120,1.0,3.0,69,0.00,,,-99.99,,2013-09-13 07:02:00,
2013-09-13 00:22:00,59.0,51.0,-100.00,ESE,116,3.0,4.0,75,0.00,,,-99.99,,2013-09-13 07:22:00,
2013-09-13 00:42:00,60.0,52.0,-100.00,ENE,68,5.0,8.0,74,0.00,,,-99.99,,2013-09-13 07:42:00,
2013-09-13 00:52:00,55.0,52.0,-100.00,SE,140,0.0,3.0,89,0.00,,,-99.99,,2013-09-13 07:52:00,
2013-09-13 01:01:00,55.0,52.0,-100.00,SE,140,0.0,3.0,89,0.00,,,-99.99,,2013-09-13 08:01:00,
2013-09-13 01:42:00,55.0,51.0,-100.00,NE,56,0.0,2.0,85,0.00,,,-99.99,,2013-09-13 08:42:00,
2013-09-13 02:11:00,55.0,50.0,-100.00,ENE,73,2.0,4.0,83,0.00,,,-99.99,,2013-09-13 09:11:00,
2013-09-13 02:21:00,55.0,50.0,-100.00,ENE,73,2.0,4.0,83,0.00,,,-99.99,,2013-09-13 09:21:00,
2013-09-13 02:43:00,57.0,51.0,-100.00,East,95,3.0,5.0,79,0.00,,,-99.99,,2013-09-13 09:43:00,
2013-09-13 02:51:00,54.0,49.0,-100.00,ENE,58,2.0,5.0,84,0.00,,,-99.99,,2013-09-13 09:51:00,
2013-09-13 02:54:00,57.0,51.0,-100.00,East,95,3.0,5.0,79,0.00,,,-99.99,,2013-09-13 09:54:00,
2013-09-13 03:03:00,57.0,51.0,-100.00,East,95,3.0,5.0,79,0.00,,,-99.99,,2013-09-13 10:03:00,
2013-09-13 03:23:00,54.0,49.0,-100.00,ENE,58,2.0,5.0,84,0.00,,,-99.99,,2013-09-13 10:23:00,
2013-09-13 03:33:00,54.0,49.0,-100.00,ENE,58,2.0,5.0,84,0.00,,,-99.99,,2013-09-13 10:33:00,
2013-09-13 03:42:00,54.0,49.0,-100.00,ENE,58,2.0,5.0,84,0.00,,,-99.99,,2013-09-13 10:42:00,
2013-09-13 04:12:00,50.0,49.0,-100.00,South,171,2.0,4.0,95,0.00,,,-99.99,,2013-09-13 11:12:00,
2013-09-13 05:11:00,50.0,49.0,-100.00,NW,316,0.0,1.0,96,0.00,,,-99.99,,2013-09-13 12:11:00,
2013-09-13 05:42:00,49.0,49.0,-100.00,SSW,193,0.0,2.0,100,0.00,,,-99.99,,2013-09-13 12:42:00,
2013-09-13 05:52:00,49.0,49.0,-100.00,SSW,193,0.0,2.0,100,0.00,,,-99.99,,2013-09-13 12:52:00,
2013-09-13 06:11:00,49.0,49.0,-100.00,SE,130,1.0,3.0,99,0.00,,,-99.99,,2013-09-13 13:11:00,
2013-09-13 06:42:00,47.0,46.0,-100.00,ESE,119,1.0,4.0,97,0.00,,,-99.99,,2013-09-13 13:42:00,
2013-09-13 07:42:00,48.0,46.0,-100.00,SE,141,1.0,4.0,92,0.00,,,-99.99,,2013-09-13 14:42:00,
2013-09-13 07:52:00,48.0,47.0,-100.00,SE,130,0.0,2.0,95,0.00,,,-99.99,,2013-09-13 14:52:00,
2013-09-13 08:02:00,48.0,47.0,-100.00,SE,130,0.0,2.0,95,0.00,,,-99.99,,2013-09-13 15:02:00,
2013-09-13 08:22:00,52.0,51.0,-100.00,SSW,196,2.0,4.0,97,0.00,,,-99.99,,2013-09-13 15:22:00,
2013-09-13 08:43:00,53.0,51.0,-100.00,WSW,240,1.0,3.0,93,0.00,,,-99.99,,2013-09-13 15:43:00,
2013-09-13 08:53:00,53.0,51.0,-100.00,WSW,240,1.0,3.0,93,0.00,,,-99.99,,2013-09-13 15:53:00,
2013-09-13 09:03:00,53.0,51.0,-100.00,WSW,240,1.0,3.0,93,0.00,,,-99.99,,2013-09-13 16:03:00,
2013-09-13 09:24:00,60.0,49.0,-100.00,NNE,13,1.0,5.0,68,0.00,,,-99.99,,2013-09-13 16:24:00,
2013-09-13 09:43:00,63.0,50.0,-100.00,WNW,282,1.0,3.0,63,0.00,,,-99.99,,2013-09-13 16:43:00,
2013-09-13 09:54:00,63.0,50.0,-100.00,WNW,282,1.0,3.0,63,0.00,,,-99.99,,2013-09-13 16:54:00,
2013-09-13 10:03:00,63.0,50.0,-100.00,WNW,282,1.0,3.0,63,0.00,,,-99.99,,2013-09-13 17:03:00,
2013-09-13 10:23:00,69.0,50.0,-100.00,SSW,196,0.0,3.0,50,0.00,,,-99.99,,2013-09-13 17:23:00,
2013-09-13 10:33:00,69.0,50.0,-100.00,SSW,196,0.0,3.0,50,0.00,,,-99.99,,2013-09-13 17:33:00,
2013-09-13 10:43:00,69.0,50.0,-100.00,SSW,196,0.0,3.0,50,0.00,,,-99.99,,2013-09-13 17:43:00,
2013-09-13 11:22:00,73.0,47.0,-100.00,South,186,3.0,7.0,40,0.00,,,-99.99,,2013-09-13 18:22:00,
2013-09-13 11:42:00,75.0,48.0,-100.00,SE,134,3.0,9.0,39,0.00,,,-99.99,,2013-09-13 18:42:00,
2013-09-13 12:11:00,78.0,43.0,-100.00,West,265,3.0,7.0,29,0.00,,,-99.99,,2013-09-13 19:11:00,
2013-09-13 12:22:00,80.0,44.0,-100.00,North,7,1.0,5.0,28,0.00,,,-99.99,,2013-09-13 19:22:00,
2013-09-13 12:42:00,79.0,43.0,-100.00,North,8,3.0,8.0,28,0.00,,,-99.99,,2013-09-13 19:42:00,
2013-09-13 12:52:00,79.0,43.0,-100.00,North,8,3.0,8.0,28,0.00,,,-99.99,,2013-09-13 19:52:00,
2013-09-13 13:02:00,79.0,43.0,-100.00,North,8,3.0,8.0,28,0.00,,,-99.99,,2013-09-13 20:02:00,
2013-09-13 13:43:00,80.0,46.0,-100.00,SW,227,6.0,10.0,30,0.00,,,-99.99,,2013-09-13 20:43:00,
2013-09-13 13:52:00,80.0,46.0,-100.00,SW,227,6.0,10.0,30,0.00,,,-99.99,,2013-09-13 20:52:00,
2013-09-13 14:02:00,80.0,46.0,-100.00,SW,227,6.0,10.0,30,0.00,,,-99.99,,2013-09-13 21:02:00,
2013-09-13 14:21:00,79.0,40.0,-100.00,West,271,7.0,16.0,25,0.00,,,-99.99,,2013-09-13 21:21:00,
2013-09-13 14:34:00,79.0,40.0,-100.00,West,271,7.0,16.0,25,0.00,,,-99.99,,2013-09-13 21:34:00,
2013-09-13 15:13:00,82.0,38.0,-100.00,WNW,282,3.0,9.0,21,0.00,,,-99.99,,2013-09-13 22:13:00,
2013-09-13 15:43:00,80.0,42.0,-100.00,West,261,9.0,15.0,26,0.00,,,-99.99,,2013-09-13 22:43:00,
2013-09-13 15:53:00,79.0,44.0,-100.00,WNW,285,7.0,12.0,29,0.00,,,-99.99,,2013-09-13 22:53:00,
2013-09-13 16:12:00,79.0,44.0,-100.00,WSW,246,6.0,7.0,29,0.00,,,-99.99,,2013-09-13 23:12:00,
2013-09-13 16:22:00,79.0,45.0,-100.00,SSW,205,5.0,8.0,30,0.00,,,-99.99,,2013-09-13 23:22:00,
2013-09-13 16:42:00,82.0,43.0,-100.00,South,191,5.0,9.0,25,0.00,,,-99.99,,2013-09-13 23:42:00,
2013-09-13 16:52:00,82.0,39.0,-100.00,NW,306,5.0,11.0,22,0.00,,,-99.99,,2013-09-13 23:52:00,
2013-09-13 17:01:00,82.0,39.0,-100.00,NW,306,5.0,11.0,22,0.00,,,-99.99,,2013-09-14 00:01:00,
2013-09-13 17:22:00,80.0,41.0,-100.00,WNW,301,4.0,7.0,25,0.00,,,-99.99,,2013-09-14 00:22:00,
2013-09-13 17:42:00,80.0,41.0,-100.00,SSW,213,7.0,12.0,25,0.00,,,-99.99,,2013-09-14 00:42:00,
2013-09-13 18:11:00,79.0,43.0,-100.00,WSW,240,9.0,17.0,28,0.00,,,-99.99,,2013-09-14 01:11:00,
2013-09-13 18:21:00,78.0,43.0,-100.00,WSW,241,12.0,22.0,29,0.00,,,-99.99,,2013-09-14 01:21:00,
2013-09-13 18:42:00,77.0,46.0,-100.00,WSW,240,13.0,19.0,33,0.00,,,-99.99,,2013-09-14 01:42:00,
2013-09-13 18:52:00,76.0,46.0,-100.00,SW,233,11.0,17.0,34,0.00,,,-99.99,,2013-09-14 01:52:00,
2013-09-13 19:02:00,76.0,46.0,-100.00,SW,233,11.0,17.0,34,0.00,,,-99.99,,2013-09-14 02:02:00,
2013-09-13 19:42:00,73.0,47.0,-100.00,NNW,332,15.0,24.0,39,0.00,,,-99.99,,2013-09-14 02:42:00,
2013-09-13 19:52:00,73.0,47.0,-100.00,NNW,332,15.0,24.0,39,0.00,,,-99.99,,2013-09-14 02:52:00,
2013-09-13 20:11:00,70.0,48.0,-100.00,NNW,344,8.0,13.0,46,0.00,,,-99.99,,2013-09-14 03:11:00,
2013-09-13 20:22:00,70.0,48.0,-100.00,NNW,344,8.0,13.0,46,0.00,,,-99.99,,2013-09-14 03:22:00,
2013-09-13 20:42:00,69.0,46.0,-100.00,ESE,123,5.0,7.0,44,0.00,,,-99.99,,2013-09-14 03:42:00,
2013-09-13 20:44:00,68.0,48.0,-100.00,ESE,104,4.0,9.0,49,0.00,,,-99.99,,2013-09-14 03:44:00,
2013-09-13 21:24:00,69.0,46.0,-100.00,ESE,123,5.0,7.0,44,0.00,,,-99.99,,2013-09-14 04:24:00,
2013-09-13 21:34:00,69.0,46.0,-100.00,ESE,123,5.0,7.0,44,0.00,,,-99.99,,2013-09-14 04:34:00,
2013-09-13 22:43:00,64.0,47.0,-100.00,East,97,2.0,4.0,54,0.00,,,-99.99,,2013-09-14 05:43:00,
2013-09-13 23:21:00,62.0,48.0,-100.00,West,261,2.0,8.0,61,0.00,,,-99.99,,2013-09-14 06:21:00,
2013-09-13 23:42:00,60.0,47.0,-100.00,West,280,3.0,6.0,63,0.00,,,-99.99,,2013-09-14 06:42:00,